createdAt,value
2017-03-05T00:09:45.492Z,7.5
2017-03-05T00:20:00.324Z,7.5
2017-03-05T00:30:15.390Z,7.6
2017-03-05T00:40:28.586Z,7.6
2017-03-05T00:50:43.426Z,7.8
2017-03-05T01:00:57.239Z,7.8
2017-03-05T01:11:11.681Z,7.9
2017-03-05T01:21:26.167Z,7.3
2017-03-05T01:31:40.110Z,7
2017-03-05T01:41:53.237Z,7
2017-03-05T01:52:08.119Z,6.6
2017-03-05T02:02:23.177Z,6.5
2017-03-05T02:12:36.671Z,6.6
2017-03-05T02:22:51.232Z,6.7
2017-03-05T02:33:05.135Z,6.5
2017-03-05T02:43:19.222Z,6.5
2017-03-05T02:53:32.772Z,6.6
2017-03-05T03:03:47.423Z,6.6
2017-03-05T03:14:01.120Z,6.8
2017-03-05T03:24:14.353Z,6.9
2017-03-05T03:34:27.299Z,7.1
2017-03-05T03:44:41.557Z,7.3
2017-03-05T03:54:54.726Z,7.3
2017-03-05T04:05:08.702Z,7.4
2017-03-05T04:15:23.063Z,7.4
2017-03-05T04:25:37.393Z,7.4
2017-03-05T04:35:52.126Z,7.5
2017-03-05T04:46:07.330Z,7.5
2017-03-05T04:56:21.463Z,7.5
2017-03-05T05:06:34.789Z,7.5
2017-03-05T05:16:48.402Z,7.5
2017-03-05T05:27:03.293Z,7.5
2017-03-05T05:37:17.193Z,7.5
2017-03-05T05:47:30.800Z,7.4
2017-03-05T05:57:44.493Z,7.6
2017-03-05T06:07:59.085Z,7.6
2017-03-05T06:18:13.269Z,7.5
2017-03-05T06:28:27.563Z,7.6
2017-03-05T06:38:42.204Z,7.8
2017-03-05T06:48:56.256Z,7.9
2017-03-05T06:59:11.048Z,7.9
2017-03-05T07:09:24.106Z,7.9
2017-03-05T07:19:39.355Z,8
2017-03-05T07:29:53.810Z,8.2
2017-03-05T07:40:07.692Z,8.3
2017-03-05T07:50:20.843Z,8.2
2017-03-05T08:00:34.308Z,8.4
2017-03-05T08:10:49.066Z,8.6
2017-03-05T08:21:02.721Z,8.6
2017-03-05T08:31:17.624Z,8.8
2017-03-05T08:41:32.169Z,8.7
2017-03-05T08:51:46.863Z,8.8
2017-03-05T09:02:00.489Z,8.7
2017-03-05T09:12:14.340Z,8.8
2017-03-05T09:22:28.873Z,9.2
2017-03-05T09:32:43.439Z,9.7
2017-03-05T09:42:58.438Z,9.7
2017-03-05T09:53:11.591Z,9.3
2017-03-05T10:03:24.820Z,10.6
2017-03-05T10:13:39.907Z,10.9
2017-03-05T10:23:54.159Z,10.3
2017-03-05T10:34:08.437Z,10
2017-03-05T10:44:22.536Z,11.1
2017-03-05T10:54:37.050Z,11.9
2017-03-05T11:04:51.430Z,12.5
2017-03-05T11:15:04.713Z,10.9
2017-03-05T11:25:18.945Z,11.5
2017-03-05T11:35:33.782Z,10.9
2017-03-05T11:45:48.172Z,11.2
2017-03-05T11:56:02.691Z,11
2017-03-05T12:06:17.576Z,11.8
2017-03-05T12:16:31.619Z,11.2
2017-03-05T12:26:46.121Z,11.9
2017-03-05T12:36:59.322Z,12
2017-03-05T12:47:13.212Z,11.6
2017-03-05T12:57:26.804Z,11
2017-03-05T13:07:40.688Z,11.2
2017-03-05T13:17:54.797Z,11.3
2017-03-05T13:28:09.510Z,12.3
2017-03-05T13:38:28.691Z,11.9
2017-03-05T13:48:39.465Z,11.9
2017-03-05T13:58:54.026Z,11.2
2017-03-05T14:09:07.655Z,11.4
2017-03-05T14:19:21.996Z,11.9
2017-03-05T14:29:43.266Z,11.7
2017-03-05T14:39:50.046Z,12.1
2017-03-05T14:50:03.271Z,12.6
2017-03-05T15:00:17.472Z,11.5
2017-03-05T15:10:32.179Z,11.3
2017-03-05T15:20:45.659Z,11.2
2017-03-05T15:30:58.915Z,11
2017-03-05T15:41:12.102Z,10.6
2017-03-05T15:51:26.468Z,10.4
2017-03-05T16:01:40.616Z,10.4
2017-03-05T16:11:55.308Z,10.3
2017-03-05T16:32:22.791Z,8.3
2017-03-05T16:42:36.265Z,8.2
2017-03-05T16:52:49.467Z,8.2
2017-03-05T17:03:03.549Z,8.2
2017-03-05T17:13:18.664Z,8.4
2017-03-05T17:23:32.485Z,8.3
2017-03-05T17:33:46.930Z,8.4
2017-03-05T17:44:00.896Z,8.5
2017-03-05T17:54:14.504Z,8.5
2017-03-05T18:04:27.870Z,8.4
2017-03-05T18:14:42.118Z,7.6
2017-03-05T18:24:56.196Z,7.2
2017-03-05T18:35:09.480Z,6.8
2017-03-05T18:45:23.582Z,6.5
2017-03-05T18:55:38.549Z,6.5
2017-03-05T19:05:53.265Z,6.4
2017-03-05T19:16:07.077Z,6.4
2017-03-05T19:26:21.694Z,6.3
2017-03-05T19:36:35.311Z,6.5
2017-03-05T19:46:48.662Z,6.6
2017-03-05T19:57:03.297Z,6.6
2017-03-05T20:07:17.953Z,6.7
2017-03-05T20:17:31.839Z,6.5
2017-03-05T20:27:44.719Z,6.5
2017-03-05T20:37:59.016Z,6.6
2017-03-05T20:48:13.507Z,6.5
2017-03-05T20:58:27.790Z,6.5
2017-03-05T21:08:42.196Z,6.5
2017-03-05T21:18:56.555Z,6.5
2017-03-05T21:29:11.257Z,6.5
2017-03-05T21:39:24.560Z,6.4
2017-03-05T21:49:38.689Z,6.4
2017-03-05T21:59:52.754Z,6.3
2017-03-05T22:10:07.476Z,6.2
2017-03-05T22:20:21.886Z,6.1
2017-03-05T22:30:36.667Z,6.1
2017-03-05T22:40:51.086Z,6.1
2017-03-05T22:51:04.125Z,6.1
2017-03-05T23:01:18.432Z,6.1
2017-03-05T23:11:33.022Z,6.1
2017-03-05T23:21:48.024Z,6.1
2017-03-05T23:32:01.822Z,6
2017-03-05T23:42:15.078Z,6.1
2017-03-05T23:52:28.844Z,6
